createdAt,value
2018-10-04T00:01:36.554Z,95.64
2018-10-04T00:04:05.656Z,96.17
2018-10-04T00:06:34.869Z,96.13
2018-10-04T00:09:05.220Z,96.09
2018-10-04T00:11:34.328Z,96.24
2018-10-04T00:14:03.711Z,95.68
2018-10-04T00:19:33.691Z,96.34
2018-10-04T00:22:03.782Z,96.37
2018-10-04T00:29:38.489Z,96.11
2018-10-04T00:32:07.988Z,95.44
2018-10-04T00:34:37.114Z,96.28
2018-10-04T00:37:06.244Z,96.40
2018-10-04T00:39:35.405Z,96.26
2018-10-04T00:42:05.034Z,95.95
2018-10-04T00:44:34.453Z,96.33
2018-10-04T00:47:04.174Z,96.14
2018-10-04T00:49:36.551Z,96.81
2018-10-04T00:52:05.703Z,96.51
2018-10-04T00:54:34.836Z,96.57
2018-10-04T00:57:04.024Z,97.09
2018-10-04T01:04:30.061Z,96.89
2018-10-04T01:06:59.158Z,96.41
2018-10-04T01:09:28.558Z,96.55
2018-10-04T01:11:57.779Z,96.41
2018-10-04T01:14:27.178Z,96.81
2018-10-04T01:16:56.304Z,96.29
2018-10-04T01:19:25.906Z,96.74
2018-10-04T01:21:55.041Z,96.03
2018-10-04T01:24:24.471Z,96.58
2018-10-04T01:26:53.579Z,96.77
2018-10-04T01:29:24.679Z,96.63
2018-10-04T01:31:55.496Z,96.41
2018-10-04T01:34:25.058Z,95.85
2018-10-04T01:36:55.798Z,96.03
2018-10-04T01:39:25.375Z,95.90
2018-10-04T01:41:54.482Z,95.73
2018-10-04T01:44:23.952Z,96.56
2018-10-04T01:46:53.038Z,96.16
2018-10-04T01:49:24.476Z,96.92
2018-10-04T01:51:53.770Z,96.54
2018-10-04T01:54:25.236Z,96.26
2018-10-04T01:56:54.367Z,95.76
2018-10-04T01:59:23.852Z,95.57
2018-10-04T02:01:52.939Z,95.66
2018-10-04T02:04:22.427Z,95.64
2018-10-04T02:06:51.538Z,96.39
2018-10-04T02:09:20.975Z,95.86
2018-10-04T02:11:52.382Z,96.77
2018-10-04T02:14:24.645Z,96.43
2018-10-04T02:16:53.797Z,96.09
2018-10-04T02:19:25.423Z,96.72
2018-10-04T02:21:54.589Z,96.38
2018-10-04T02:24:24.076Z,96.09
2018-10-04T02:26:53.187Z,96.54
2018-10-04T02:29:22.383Z,96.80
2018-10-04T02:31:51.583Z,96.01
2018-10-04T02:34:21.111Z,96.58
2018-10-04T02:36:50.312Z,95.71
2018-10-04T02:39:20.406Z,96.13
2018-10-04T02:41:49.555Z,96.30
2018-10-04T02:44:19.030Z,95.59
2018-10-04T02:46:48.137Z,96.26
2018-10-04T02:49:17.731Z,95.35
2018-10-04T02:51:46.867Z,95.19
2018-10-04T02:54:21.275Z,95.39
2018-10-04T02:56:54.613Z,95.23
2018-10-04T02:59:25.403Z,95.80
2018-10-04T03:01:54.709Z,95.74
2018-10-04T03:04:24.258Z,95.69
2018-10-04T03:06:53.492Z,95.35
2018-10-04T03:09:23.048Z,95.32
2018-10-04T03:11:53.701Z,94.57
2018-10-04T03:14:23.122Z,95.08
2018-10-04T03:16:52.285Z,95.41
2018-10-04T03:19:21.722Z,94.93
2018-10-04T03:21:50.906Z,95.18
2018-10-04T03:24:20.327Z,94.50
2018-10-04T03:26:49.453Z,94.69
2018-10-04T03:29:21.191Z,95.21
2018-10-04T03:31:54.451Z,95.29
2018-10-04T03:34:25.774Z,95.03
2018-10-04T03:36:57.228Z,95.94
2018-10-04T03:39:28.310Z,95.61
2018-10-04T03:41:57.410Z,96.10
2018-10-04T03:44:27.019Z,95.68
2018-10-04T03:46:56.007Z,95.23
2018-10-04T03:49:27.823Z,95.54
2018-10-04T04:05:00.783Z,96.21
2018-10-04T04:07:30.267Z,97.21
2018-10-04T04:09:59.374Z,96.71
2018-10-04T04:12:28.815Z,97.31
2018-10-04T04:14:57.983Z,96.86
2018-10-04T04:17:27.470Z,96.76
2018-10-04T04:19:58.361Z,97.03
2018-10-04T04:22:29.312Z,97.04
2018-10-04T04:24:58.427Z,97.85
2018-10-04T04:30:30.633Z,97.97
2018-10-04T04:32:59.699Z,97.21
2018-10-04T04:35:29.155Z,97.33
2018-10-04T04:37:58.235Z,97.79
2018-10-04T04:40:27.682Z,98.92
2018-10-04T04:42:56.855Z,98.96
2018-10-04T04:45:26.326Z,99.02
2018-10-04T04:47:55.449Z,98.83
2018-10-04T04:50:24.968Z,99.16
2018-10-04T04:52:54.510Z,99.79
2018-10-04T04:55:26.583Z,99.98
2018-10-04T04:57:56.491Z,99.97
2018-10-04T05:00:27.223Z,99.78
2018-10-04T05:02:56.662Z,100.00
2018-10-04T05:05:26.747Z,100.00
2018-10-04T05:07:56.972Z,99.86
2018-10-04T05:10:26.509Z,100.00
2018-10-04T05:12:56.769Z,100.00
2018-10-04T05:15:26.388Z,100.00
2018-10-04T05:17:55.613Z,99.93
2018-10-04T05:20:25.107Z,100.00
2018-10-04T05:22:55.877Z,100.00
2018-10-04T05:25:25.353Z,100.00
2018-10-04T05:27:54.513Z,99.72
2018-10-04T05:30:23.722Z,99.94
2018-10-04T05:32:52.837Z,100.00
2018-10-04T05:35:22.380Z,100.00
2018-10-04T05:37:51.771Z,99.28
2018-10-04T05:40:23.013Z,99.09
2018-10-04T05:42:52.127Z,99.21
2018-10-04T05:45:21.668Z,99.23
2018-10-04T05:47:50.725Z,99.35
2018-10-04T05:50:20.150Z,99.92
2018-10-04T05:52:49.271Z,99.60
2018-10-04T05:55:19.781Z,99.35
2018-10-04T06:00:38.563Z,99.37
2018-10-04T06:03:07.689Z,99.76
2018-10-04T06:05:37.217Z,100.00
2018-10-04T06:08:06.396Z,99.82
2018-10-04T06:10:39.842Z,100.00
2018-10-04T06:13:09.598Z,99.96
2018-10-04T06:49:37.210Z,100.00
2018-10-04T06:52:06.613Z,100.00
2018-10-04T06:54:36.056Z,100.00
2018-10-04T06:57:06.938Z,100.00
2018-10-04T06:59:36.038Z,99.83
2018-10-04T07:02:05.179Z,100.00
2018-10-04T07:04:36.668Z,100.00
2018-10-04T07:07:05.870Z,99.98
2018-10-04T07:09:34.934Z,100.00
2018-10-04T07:12:16.233Z,100.00
2018-10-04T07:14:45.346Z,99.33
2018-10-04T07:17:16.679Z,100.00
2018-10-04T07:19:45.818Z,100.00
2018-10-04T07:22:15.399Z,99.67
2018-10-04T07:24:46.739Z,99.24
2018-10-04T07:27:16.170Z,99.41
2018-10-04T07:29:45.467Z,99.66
2018-10-04T07:32:16.507Z,99.62
2018-10-04T07:34:45.614Z,99.59
2018-10-04T07:37:15.133Z,100.00
2018-10-04T07:39:44.197Z,100.00
2018-10-04T07:42:13.701Z,100.00
2018-10-04T07:44:45.167Z,100.00
2018-10-04T07:47:14.855Z,99.81
2018-10-04T07:49:45.643Z,100.00
2018-10-04T07:54:46.961Z,99.82
2018-10-04T07:57:16.512Z,99.98
2018-10-04T07:59:45.695Z,100.00
2018-10-04T08:02:15.123Z,100.00
2018-10-04T08:04:46.116Z,100.00
2018-10-04T08:07:17.678Z,100.00
2018-10-04T08:09:48.703Z,100.00
2018-10-04T08:12:18.191Z,100.00
2018-10-04T08:14:47.295Z,100.00
2018-10-04T08:17:16.725Z,100.00
2018-10-04T08:19:45.844Z,100.00
2018-10-04T08:22:15.787Z,100.00
2018-10-04T08:24:47.404Z,99.75
2018-10-04T08:27:17.171Z,99.56
2018-10-04T08:29:46.343Z,99.43
2018-10-04T08:32:15.906Z,99.35
2018-10-04T08:34:47.029Z,99.10
2018-10-04T08:37:20.609Z,98.58
2018-10-04T08:39:57.521Z,98.15
2018-10-04T08:42:29.313Z,97.41
2018-10-04T08:45:02.008Z,96.90
2018-10-04T08:47:34.177Z,96.14
2018-10-04T08:50:05.920Z,95.93
2018-10-04T08:52:42.636Z,94.88
2018-10-04T08:55:19.785Z,93.74
2018-10-04T08:57:51.181Z,93.58
2018-10-04T09:00:26.055Z,93.26
2018-10-04T09:03:02.491Z,92.83
2018-10-04T09:05:36.402Z,92.67
2018-10-04T09:08:05.509Z,92.94
2018-10-04T09:10:35.077Z,92.35
2018-10-04T09:13:06.409Z,92.02
2018-10-04T09:15:35.552Z,91.20
2018-10-04T09:18:04.663Z,88.53
2018-10-04T09:20:33.824Z,87.72
2018-10-04T09:23:05.542Z,86.21
2018-10-04T09:25:35.004Z,86.16
2018-10-04T09:28:04.222Z,85.99
2018-10-04T09:30:38.897Z,85.21
2018-10-04T09:33:08.049Z,84.56
2018-10-04T09:35:37.185Z,84.40
2018-10-04T09:38:06.285Z,83.30
2018-10-04T09:40:35.823Z,82.05
2018-10-04T09:43:05.985Z,80.88
2018-10-04T09:45:35.449Z,80.64
2018-10-04T09:48:04.749Z,79.75
2018-10-04T09:50:38.218Z,79.34
2018-10-04T09:53:07.290Z,79.84
2018-10-04T09:55:41.948Z,79.94
2018-10-04T09:58:11.807Z,77.15
2018-10-04T10:00:47.033Z,76.94
2018-10-04T10:03:16.144Z,76.05
2018-10-04T10:05:46.991Z,74.93
2018-10-04T10:08:19.034Z,73.41
2018-10-04T10:10:48.139Z,71.96
2018-10-04T10:13:17.597Z,69.77
2018-10-04T10:15:46.781Z,70.90
2018-10-04T10:18:18.269Z,71.11
2018-10-04T10:20:47.433Z,70.18
2018-10-04T10:23:16.959Z,70.96
2018-10-04T10:25:46.059Z,71.79
2018-10-04T10:28:15.574Z,71.95
2018-10-04T10:30:44.654Z,71.91
2018-10-04T10:33:14.099Z,71.80
2018-10-04T10:35:45.397Z,71.69
2018-10-04T10:38:14.945Z,69.93
2018-10-04T10:40:45.659Z,71.15
2018-10-04T10:43:15.306Z,71.58
2018-10-04T10:45:44.465Z,71.50
2018-10-04T10:48:13.961Z,68.37
2018-10-04T10:50:43.148Z,71.67
2018-10-04T10:53:19.251Z,70.92
2018-10-04T10:55:48.928Z,70.98
2018-10-04T10:58:24.272Z,69.30
2018-10-04T11:00:56.172Z,67.50
2018-10-04T11:03:26.897Z,66.59
2018-10-04T11:05:56.008Z,69.02
2018-10-04T11:08:25.648Z,68.83
2018-10-04T11:10:56.300Z,69.95
2018-10-04T11:13:42.343Z,68.60
2018-10-04T11:16:12.644Z,68.42
2018-10-04T11:18:43.045Z,66.49
2018-10-04T11:21:12.660Z,67.41
2018-10-04T11:23:42.840Z,69.34
2018-10-04T11:26:12.774Z,69.99
2018-10-04T11:28:42.910Z,67.31
2018-10-04T11:31:14.734Z,68.35
2018-10-04T11:33:43.964Z,69.03
2018-10-04T11:36:15.416Z,67.17
2018-10-04T11:38:44.510Z,68.19
2018-10-04T11:41:15.830Z,66.02
2018-10-04T11:43:48.366Z,66.59
2018-10-04T11:46:17.910Z,66.23
2018-10-04T11:48:48.273Z,66.77
2018-10-04T11:51:22.018Z,64.46
2018-10-04T11:53:52.754Z,65.14
2018-10-04T11:56:22.321Z,65.59
2018-10-04T11:58:51.454Z,65.30
2018-10-04T12:01:21.089Z,65.12
2018-10-04T12:03:50.078Z,64.98
2018-10-04T12:06:19.258Z,63.36
2018-10-04T12:08:50.694Z,65.18
2018-10-04T12:11:20.214Z,64.75
2018-10-04T12:13:49.301Z,62.92
2018-10-04T12:16:18.420Z,64.40
2018-10-04T12:18:47.709Z,64.20
2018-10-04T12:21:17.224Z,63.91
2018-10-04T12:23:46.338Z,61.91
2018-10-04T12:26:15.839Z,62.83
2018-10-04T12:28:44.932Z,63.15
2018-10-04T12:31:14.524Z,62.67
2018-10-04T12:33:43.637Z,62.87
2018-10-04T12:36:13.515Z,62.78
2018-10-04T12:38:45.740Z,62.71
2018-10-04T12:41:15.330Z,63.99
2018-10-04T12:43:44.521Z,63.12
2018-10-04T12:46:16.151Z,63.02
2018-10-04T12:48:45.279Z,61.57
2018-10-04T12:51:14.994Z,60.95
2018-10-04T12:53:44.135Z,61.67
2018-10-04T12:56:13.739Z,61.25
2018-10-04T12:58:43.879Z,60.15
2018-10-04T13:01:13.675Z,59.69
2018-10-04T13:03:46.287Z,59.33
2018-10-04T13:06:15.867Z,60.90
2018-10-04T13:08:49.943Z,61.08
2018-10-04T13:11:21.096Z,60.04
2018-10-04T13:13:52.839Z,58.36
2018-10-04T13:16:23.723Z,59.69
2018-10-04T13:18:54.639Z,59.51
2018-10-04T13:21:26.238Z,59.38
2018-10-04T13:23:55.454Z,60.44
2018-10-04T13:26:24.939Z,60.35
2018-10-04T13:28:54.139Z,59.93
2018-10-04T13:31:23.640Z,59.51
2018-10-04T13:33:54.575Z,58.43
2018-10-04T13:36:25.905Z,59.08
2018-10-04T13:38:55.099Z,58.32
2018-10-04T13:41:24.530Z,58.13
2018-10-04T13:43:53.656Z,57.53
2018-10-04T13:46:24.469Z,57.09
2018-10-04T13:48:53.561Z,55.68
2018-10-04T13:51:23.158Z,57.02
2018-10-04T13:53:52.191Z,57.59
2018-10-04T13:56:21.777Z,59.29
2018-10-04T13:58:50.944Z,58.36
2018-10-04T14:01:20.016Z,57.21
2018-10-04T14:03:50.749Z,57.60
2018-10-04T14:06:20.226Z,57.54
2018-10-04T14:08:53.908Z,57.57
2018-10-04T14:11:23.382Z,56.89
2018-10-04T14:13:52.460Z,56.84
2018-10-04T14:16:22.272Z,56.34
2018-10-04T14:18:51.434Z,56.00
2018-10-04T14:21:21.364Z,56.63
2018-10-04T14:23:50.505Z,57.17
2018-10-04T14:26:19.967Z,56.31
2018-10-04T14:28:52.429Z,54.88
2018-10-04T14:31:24.076Z,54.50
2018-10-04T14:33:53.187Z,55.51
2018-10-04T14:36:22.314Z,54.69
2018-10-04T14:38:51.487Z,53.31
2018-10-04T14:41:21.012Z,52.31
2018-10-04T14:43:50.209Z,52.27
2018-10-04T14:46:19.917Z,50.83
2018-10-04T14:48:49.026Z,50.75
2018-10-04T14:51:20.245Z,50.55
2018-10-04T14:53:49.326Z,51.37
2018-10-04T14:56:21.316Z,50.56
2018-10-04T14:58:53.010Z,49.77
2018-10-04T15:01:22.461Z,50.55
2018-10-04T15:03:51.552Z,50.33
2018-10-04T15:06:22.675Z,50.30
2018-10-04T15:08:51.742Z,49.11
2018-10-04T15:11:21.257Z,49.94
2018-10-04T15:13:50.332Z,50.59
2018-10-04T15:16:21.549Z,51.86
2018-10-04T15:21:34.565Z,52.52
2018-10-04T15:24:03.672Z,53.69
2018-10-04T15:26:36.640Z,54.04
2018-10-04T15:29:06.154Z,54.75
2018-10-04T15:31:41.809Z,54.45
2018-10-04T15:34:12.765Z,54.87
2018-10-04T15:36:41.872Z,56.50
2018-10-04T15:39:14.484Z,56.75
2018-10-04T15:44:29.183Z,56.64
2018-10-04T15:46:58.367Z,55.79
2018-10-04T15:49:30.124Z,57.33
2018-10-04T15:51:59.329Z,57.54
2018-10-04T15:54:28.911Z,58.33
2018-10-04T15:56:58.064Z,58.86
2018-10-04T15:59:28.907Z,59.14
2018-10-04T16:02:04.563Z,60.02
2018-10-04T16:28:06.912Z,62.16
2018-10-04T16:30:37.170Z,62.35
2018-10-04T16:33:07.566Z,62.95
2018-10-04T16:35:38.811Z,63.02
2018-10-04T16:38:10.427Z,62.88
2018-10-04T16:40:39.999Z,63.27
2018-10-04T16:43:09.704Z,63.19
2018-10-04T16:45:39.782Z,63.50
2018-10-04T16:48:09.345Z,64.11
2018-10-04T16:50:39.265Z,64.19
2018-10-04T16:53:08.932Z,64.68
2018-10-04T16:55:39.006Z,65.46
2018-10-04T16:58:08.710Z,65.78
2018-10-04T17:00:38.320Z,65.77
2018-10-04T17:03:07.983Z,66.16
2018-10-04T17:05:38.016Z,66.43
2018-10-04T17:08:07.653Z,67.00
2018-10-04T17:10:37.382Z,67.11
2018-10-04T17:13:07.144Z,67.43
2018-10-04T17:15:37.293Z,67.43
2018-10-04T17:18:07.000Z,68.16
2018-10-04T17:20:36.909Z,69.17
2018-10-04T17:23:06.696Z,69.61
2018-10-04T17:25:36.384Z,69.89
2018-10-04T17:28:08.006Z,70.70
2018-10-04T17:30:37.681Z,70.68
2018-10-04T17:33:07.551Z,70.48
2018-10-04T17:35:37.781Z,70.18
2018-10-04T17:38:07.720Z,70.23
2018-10-04T17:40:41.176Z,70.85
2018-10-04T17:43:14.057Z,70.92
2018-10-04T17:45:44.117Z,71.42
2018-10-04T17:48:18.297Z,71.47
2018-10-04T17:50:49.595Z,72.19
2018-10-04T17:53:19.541Z,72.66
2018-10-04T17:55:49.274Z,73.35
2018-10-04T17:58:19.003Z,73.84
2018-10-04T18:00:48.693Z,74.47
2018-10-04T18:03:18.905Z,75.04
2018-10-04T18:05:50.537Z,75.77
2018-10-04T18:08:20.592Z,75.50
2018-10-04T18:10:56.498Z,76.27
2018-10-04T18:13:26.542Z,76.26
2018-10-04T18:15:56.495Z,76.82
2018-10-04T18:18:26.937Z,77.24
2018-10-04T18:20:56.750Z,77.20
2018-10-04T18:23:30.937Z,77.17
2018-10-04T18:26:00.852Z,77.26
2018-10-04T18:28:35.831Z,77.29
2018-10-04T18:31:05.732Z,77.77
2018-10-04T18:33:38.000Z,77.72
2018-10-04T18:36:09.781Z,78.30
2018-10-04T18:38:40.335Z,78.30
2018-10-04T18:41:10.511Z,78.46
2018-10-04T18:43:41.012Z,78.29
2018-10-04T18:46:11.268Z,78.42
2018-10-04T18:48:42.419Z,78.66
2018-10-04T18:51:12.577Z,78.41
2018-10-04T18:53:44.697Z,77.87
2018-10-04T18:56:15.138Z,77.38
2018-10-04T18:58:45.514Z,77.39
2018-10-04T19:01:15.933Z,77.48
2018-10-04T19:03:46.000Z,78.05
2018-10-04T19:06:16.489Z,78.32
2018-10-04T19:08:47.665Z,78.80
2018-10-04T19:11:17.987Z,78.67
2018-10-04T19:13:53.324Z,79.11
2018-10-04T19:16:24.407Z,79.11
2018-10-04T19:18:54.476Z,78.71
2018-10-04T19:21:25.198Z,79.06
2018-10-04T19:24:02.045Z,79.12
2018-10-04T19:26:32.513Z,79.65
2018-10-04T19:29:03.593Z,79.63
2018-10-04T19:31:33.857Z,80.09
2018-10-04T19:34:04.092Z,79.83
2018-10-04T19:36:34.332Z,80.35
2018-10-04T19:39:06.117Z,80.65
2018-10-04T19:41:40.725Z,80.46
2018-10-04T19:44:11.062Z,79.96
2018-10-04T19:46:41.333Z,80.27
2018-10-04T19:49:11.489Z,79.90
2018-10-04T19:51:41.521Z,80.10
2018-10-04T19:54:13.077Z,79.84
2018-10-04T19:56:43.402Z,80.06
2018-10-04T19:59:13.549Z,80.12
2018-10-04T20:01:46.411Z,80.42
2018-10-04T20:04:18.656Z,81.11
2018-10-04T20:06:51.409Z,80.73
2018-10-04T20:09:21.516Z,81.13
2018-10-04T20:11:51.444Z,81.50
2018-10-04T20:14:21.542Z,81.72
2018-10-04T20:16:51.534Z,82.34
2018-10-04T20:19:24.012Z,83.45
2018-10-04T20:24:33.215Z,83.37
2018-10-04T20:27:02.528Z,83.96
2018-10-04T20:29:34.071Z,83.43
2018-10-04T20:32:05.128Z,83.89
2018-10-04T20:34:34.477Z,84.23
2018-10-04T20:37:03.940Z,84.38
2018-10-04T20:39:33.772Z,84.51
2018-10-04T20:42:03.422Z,84.87
2018-10-04T20:44:32.559Z,84.37
2018-10-04T20:47:01.801Z,84.32
2018-10-04T20:49:35.951Z,83.88
2018-10-04T20:52:05.138Z,83.48
2018-10-04T20:54:36.409Z,83.71
2018-10-04T20:57:05.550Z,83.17
2018-10-04T20:59:34.723Z,82.98
2018-10-04T21:02:03.895Z,82.95
2018-10-04T21:04:33.407Z,83.59
2018-10-04T21:07:02.561Z,83.06
2018-10-04T21:09:35.282Z,83.54
2018-10-04T21:14:46.247Z,83.28
2018-10-04T21:17:15.796Z,83.46
2018-10-04T21:19:44.939Z,83.27
2018-10-04T21:22:21.902Z,83.46
2018-10-04T21:24:50.946Z,83.64
2018-10-04T21:27:20.087Z,83.41
2018-10-04T21:29:49.153Z,83.34
2018-10-04T21:32:18.640Z,83.81
2018-10-04T21:34:50.611Z,83.00
2018-10-04T21:37:19.789Z,83.25
2018-10-04T21:39:48.897Z,82.88
2018-10-04T21:42:18.687Z,82.51
2018-10-04T21:49:57.142Z,82.50
2018-10-04T21:52:26.302Z,82.41
2018-10-04T21:54:55.444Z,82.11
2018-10-04T21:57:24.538Z,82.54
2018-10-04T21:59:53.808Z,82.52
2018-10-04T22:02:22.963Z,83.05
2018-10-04T22:04:52.059Z,82.92
2018-10-04T22:07:21.230Z,82.00
2018-10-04T22:09:50.287Z,82.74
2018-10-04T22:12:19.454Z,83.45
2018-10-04T22:14:48.799Z,83.55
2018-10-04T22:17:19.073Z,83.46
2018-10-04T22:19:48.824Z,84.09
2018-10-04T22:22:19.115Z,84.30
2018-10-04T22:24:48.907Z,84.51
2018-10-04T23:45:37.358Z,85.67
2018-10-04T23:48:06.572Z,85.90
2018-10-04T23:50:35.672Z,85.53
2018-10-04T23:53:04.880Z,85.88
2018-10-04T23:55:33.965Z,85.78
2018-10-04T23:58:03.097Z,86.54
